createdAt,value
2022-12-09T00:01:18.294Z,27.53
2022-12-09T00:03:47.194Z,27.43
2022-12-09T00:06:20.820Z,27.80
2022-12-09T00:08:49.192Z,28.40
2022-12-09T00:11:18.097Z,27.50
2022-12-09T00:13:53.335Z,27.13
2022-12-09T00:16:22.584Z,26.73
2022-12-09T00:18:50.745Z,26.43
2022-12-09T00:21:26.268Z,28.13
2022-12-09T00:23:56.169Z,28.13
2022-12-09T00:26:25.495Z,29.73
2022-12-09T00:28:54.999Z,26.17
2022-12-09T00:31:32.549Z,27.80
2022-12-09T00:34:04.956Z,28.40
2022-12-09T00:36:33.517Z,27.97
2022-12-09T00:39:01.401Z,26.93
2022-12-09T00:41:30.055Z,27.07
2022-12-09T00:43:58.484Z,25.30
2022-12-09T00:46:26.215Z,24.87
2022-12-09T00:48:53.871Z,26.57
2022-12-09T00:51:24.367Z,25.33
2022-12-09T00:53:56.016Z,22.87
2022-12-09T00:56:29.055Z,23.57
2022-12-09T00:58:58.100Z,23.03
2022-12-09T01:01:27.780Z,22.77
2022-12-09T01:03:59.159Z,22.77
2022-12-09T01:06:28.085Z,23.20
2022-12-09T01:08:55.898Z,22.90
2022-12-09T01:11:29.004Z,21.47
2022-12-09T01:14:02.392Z,21.77
2022-12-09T01:16:33.642Z,23.37
2022-12-09T01:19:08.393Z,24.67
2022-12-09T01:21:36.903Z,22.47
2022-12-09T01:24:11.463Z,24.60
2022-12-09T01:26:39.454Z,22.23
2022-12-09T01:29:07.322Z,21.83
2022-12-09T01:31:35.941Z,23.47
2022-12-09T01:34:03.954Z,23.23
2022-12-09T01:36:32.193Z,20.77
2022-12-09T01:39:00.901Z,23.13
2022-12-09T01:41:28.859Z,22.73
2022-12-09T01:44:25.371Z,20.03
2022-12-09T01:47:01.704Z,19.40
2022-12-09T01:49:46.992Z,20.10
2022-12-09T01:52:22.627Z,19.43
2022-12-09T01:54:52.909Z,20.17
2022-12-09T01:57:21.042Z,20.50
2022-12-09T01:59:49.967Z,19.13
2022-12-09T02:02:19.906Z,19.63
2022-12-09T02:04:50.162Z,20.17
2022-12-09T02:07:19.991Z,23.17
2022-12-09T02:09:53.334Z,20.97
2022-12-09T02:12:43.437Z,27.97
2022-12-09T02:15:21.974Z,23.67
2022-12-09T02:18:01.813Z,24.57
2022-12-09T02:20:37.330Z,26.93
2022-12-09T02:23:28.020Z,31.63
2022-12-09T02:26:55.817Z,24.63
2022-12-09T02:29:32.082Z,23.77
2022-12-09T02:32:49.929Z,21.97
2022-12-09T02:35:56.962Z,23.13
2022-12-09T02:38:33.401Z,21.30
2022-12-09T02:41:07.822Z,20.97
2022-12-09T02:43:50.037Z,25.83
2022-12-09T02:46:23.556Z,30.53
2022-12-09T02:48:57.262Z,29.23
2022-12-09T02:51:30.851Z,21.57
2022-12-09T02:54:06.039Z,21.70
2022-12-09T02:56:36.314Z,26.20
2022-12-09T02:59:04.442Z,24.43
2022-12-09T03:02:02.321Z,22.60
2022-12-09T03:04:32.420Z,20.10
2022-12-09T03:07:18.182Z,17.30
2022-12-09T03:09:48.633Z,17.60
2022-12-09T03:12:21.293Z,18.27
2022-12-09T03:14:53.856Z,17.60
2022-12-09T03:17:37.148Z,16.57
2022-12-09T03:20:14.827Z,17.57
2022-12-09T03:22:45.906Z,16.13
2022-12-09T03:25:28.513Z,17.23
2022-12-09T03:28:04.194Z,16.40
2022-12-09T03:30:35.679Z,16.40
2022-12-09T03:33:05.199Z,18.73
2022-12-09T03:35:52.373Z,17.03
2022-12-09T03:38:23.448Z,18.20
2022-12-09T03:41:04.677Z,17.17
2022-12-09T03:43:38.877Z,17.90
2022-12-09T03:46:06.534Z,19.43
2022-12-09T03:48:34.577Z,17.90
2022-12-09T03:51:14.425Z,18.47
2022-12-09T03:54:02.805Z,19.47
2022-12-09T03:56:40.624Z,20.20
2022-12-09T03:59:14.827Z,21.43
2022-12-09T04:01:45.208Z,20.67
2022-12-09T04:04:15.105Z,18.50
2022-12-09T04:06:43.019Z,20.70
2022-12-09T04:09:13.194Z,21.53
2022-12-09T04:11:41.213Z,20.80
2022-12-09T04:14:15.102Z,21.40
2022-12-09T04:16:46.424Z,23.73
2022-12-09T04:19:14.921Z,18.73
2022-12-09T04:21:43.347Z,23.47
2022-12-09T04:24:10.957Z,18.40
2022-12-09T04:26:38.815Z,91.97
2022-12-09T04:29:06.944Z,22.30
2022-12-09T04:31:35.056Z,21.40
2022-12-09T04:34:08.968Z,19.80
2022-12-09T04:36:38.613Z,21.33
2022-12-09T04:39:07.452Z,19.70
2022-12-09T04:41:35.407Z,19.03
2022-12-09T04:44:04.243Z,19.17
2022-12-09T04:46:31.906Z,24.93
2022-12-09T04:48:59.385Z,25.53
2022-12-09T04:51:27.024Z,26.97
2022-12-09T04:53:54.961Z,28.83
2022-12-09T04:56:23.238Z,23.50
2022-12-09T04:58:51.844Z,27.73
2022-12-09T05:01:29.799Z,23.40
2022-12-09T05:03:58.665Z,22.90
2022-12-09T05:06:28.220Z,24.70
2022-12-09T05:08:56.055Z,28.27
2022-12-09T05:11:24.428Z,24.40
2022-12-09T05:13:54.649Z,22.90
2022-12-09T05:16:22.757Z,21.53
2022-12-09T05:18:50.838Z,22.83
2022-12-09T05:21:21.117Z,38.70
2022-12-09T05:23:49.625Z,46.10
2022-12-09T05:26:21.349Z,36.17
2022-12-09T05:28:51.144Z,19.73
2022-12-09T05:31:22.228Z,20.37
2022-12-09T05:33:52.422Z,22.43
2022-12-09T05:36:29.940Z,18.33
2022-12-09T05:38:58.496Z,18.00
2022-12-09T05:41:26.295Z,20.90
2022-12-09T05:43:54.747Z,14.57
2022-12-09T05:46:22.926Z,15.43
2022-12-09T05:48:51.057Z,17.53
2022-12-09T05:51:27.962Z,14.87
2022-12-09T05:54:00.283Z,13.80
2022-12-09T05:56:28.399Z,13.30
2022-12-09T05:58:56.733Z,13.33
2022-12-09T06:01:26.496Z,14.07
2022-12-09T06:03:55.466Z,14.50
2022-12-09T06:06:31.384Z,14.10
2022-12-09T06:09:01.943Z,14.63
2022-12-09T06:11:32.359Z,15.57
2022-12-09T06:14:00.211Z,15.47
2022-12-09T06:16:28.179Z,15.77
2022-12-09T06:18:56.296Z,15.53
2022-12-09T06:21:24.538Z,15.57
2022-12-09T06:23:53.538Z,16.00
2022-12-09T06:26:30.209Z,15.23
2022-12-09T06:28:59.800Z,17.10
2022-12-09T06:31:29.438Z,15.47
2022-12-09T06:33:58.872Z,15.93
2022-12-09T06:36:30.265Z,16.67
2022-12-09T06:39:05.846Z,16.90
2022-12-09T06:41:37.286Z,15.93
2022-12-09T06:44:05.080Z,14.27
2022-12-09T06:46:34.487Z,13.70
2022-12-09T06:49:02.629Z,15.27
2022-12-09T06:51:30.733Z,16.90
2022-12-09T06:53:58.687Z,16.07
2022-12-09T06:56:26.938Z,15.83
2022-12-09T06:58:54.845Z,17.70
2022-12-09T07:01:26.014Z,16.57
2022-12-09T07:03:57.105Z,16.23
2022-12-09T07:06:36.597Z,22.93
2022-12-09T07:09:20.874Z,22.63
2022-12-09T07:11:49.830Z,16.27
2022-12-09T07:14:19.403Z,15.63
2022-12-09T07:16:47.799Z,15.23
2022-12-09T07:19:21.286Z,63.00
2022-12-09T07:21:50.895Z,20.50
2022-12-09T07:24:20.305Z,18.50
2022-12-09T07:26:48.707Z,40.97
2022-12-09T07:29:17.151Z,21.90
2022-12-09T07:31:45.462Z,15.83
2022-12-09T07:34:13.538Z,24.43
2022-12-09T07:36:41.511Z,17.37
2022-12-09T07:39:15.480Z,16.70
2022-12-09T07:41:43.985Z,15.63
2022-12-09T07:44:12.782Z,14.87
2022-12-09T07:46:40.868Z,16.90
2022-12-09T07:49:10.109Z,16.90
2022-12-09T07:51:38.234Z,18.67
2022-12-09T07:54:06.177Z,28.90
2022-12-09T07:56:34.407Z,19.60
2022-12-09T07:59:02.216Z,17.07
2022-12-09T08:01:31.698Z,16.40
2022-12-09T08:03:59.644Z,15.73
2022-12-09T08:06:30.349Z,16.87
2022-12-09T08:09:04.200Z,16.10
2022-12-09T08:11:34.086Z,16.73
2022-12-09T08:14:11.043Z,15.67
2022-12-09T08:16:42.181Z,15.53
2022-12-09T08:19:10.486Z,16.30
2022-12-09T08:21:39.174Z,16.20
2022-12-09T08:24:08.074Z,16.77
2022-12-09T08:26:39.292Z,17.93
2022-12-09T08:29:13.595Z,16.60
2022-12-09T08:31:43.951Z,17.33
2022-12-09T08:34:12.445Z,16.87
2022-12-09T08:36:41.939Z,16.67
2022-12-09T08:39:11.796Z,16.13
2022-12-09T08:41:40.444Z,17.23
2022-12-09T08:44:16.240Z,18.60
2022-12-09T08:46:51.382Z,18.47
2022-12-09T08:49:23.307Z,17.73
2022-12-09T08:51:53.568Z,19.27
2022-12-09T08:54:34.685Z,17.63
2022-12-09T08:57:03.813Z,19.27
2022-12-09T08:59:31.750Z,21.57
2022-12-09T09:02:02.970Z,19.27
2022-12-09T09:04:37.796Z,16.93
2022-12-09T09:09:55.724Z,15.50
2022-12-09T09:12:30.644Z,15.77
2022-12-09T09:14:59.240Z,17.07
2022-12-09T09:17:27.404Z,16.47
2022-12-09T09:19:55.352Z,18.57
2022-12-09T09:22:23.558Z,19.87
2022-12-09T09:24:54.225Z,19.43
2022-12-09T09:27:23.032Z,19.33
2022-12-09T09:29:50.930Z,18.67
2022-12-09T09:32:18.829Z,25.80
2022-12-09T09:34:48.660Z,21.63
2022-12-09T09:37:19.611Z,19.03
2022-12-09T09:39:47.265Z,18.10
2022-12-09T09:42:23.480Z,20.57
2022-12-09T09:44:54.262Z,22.30
2022-12-09T09:47:51.176Z,22.83
2022-12-09T09:50:44.588Z,14.47
2022-12-09T09:53:26.825Z,14.27
2022-12-09T09:56:10.645Z,16.33
2022-12-09T09:58:50.332Z,16.67
2022-12-09T10:01:20.951Z,16.53
2022-12-09T10:04:19.602Z,15.67
2022-12-09T10:07:16.057Z,15.93
2022-12-09T10:10:34.471Z,15.50
2022-12-09T10:13:34.158Z,14.60
2022-12-09T10:16:25.158Z,14.67
2022-12-09T10:19:12.056Z,15.47
2022-12-09T10:21:45.249Z,14.67
2022-12-09T10:24:26.916Z,15.90
2022-12-09T10:27:09.707Z,15.70
2022-12-09T10:30:13.102Z,16.30
2022-12-09T10:32:44.329Z,15.53
2022-12-09T10:35:20.179Z,16.27
2022-12-09T10:37:52.650Z,16.37
2022-12-09T10:41:08.011Z,16.33
2022-12-09T10:43:41.055Z,17.20
2022-12-09T10:46:22.405Z,15.93
2022-12-09T10:48:56.284Z,16.63
2022-12-09T10:51:34.804Z,18.70
2022-12-09T10:54:15.319Z,19.53
2022-12-09T10:57:05.874Z,18.37
2022-12-09T10:59:36.031Z,18.47
2022-12-09T11:02:09.948Z,17.20
2022-12-09T11:04:41.736Z,17.53
2022-12-09T11:07:16.594Z,16.17
2022-12-09T11:09:49.357Z,16.03
2022-12-09T11:12:34.771Z,16.10
2022-12-09T11:15:43.804Z,14.93
2022-12-09T11:18:32.951Z,14.97
2022-12-09T11:21:04.913Z,14.53
2022-12-09T11:23:36.680Z,14.97
2022-12-09T11:26:23.104Z,16.30
2022-12-09T11:29:04.597Z,16.17
2022-12-09T11:31:38.282Z,17.00
2022-12-09T11:34:26.316Z,17.40
2022-12-09T11:36:58.130Z,16.80
2022-12-09T11:39:33.681Z,18.73
2022-12-09T11:42:17.577Z,17.03
2022-12-09T11:45:27.621Z,17.30
2022-12-09T11:48:29.797Z,18.53
2022-12-09T11:50:58.684Z,26.43
2022-12-09T11:53:32.698Z,20.43
2022-12-09T11:56:17.277Z,16.13
2022-12-09T11:59:12.405Z,17.20
2022-12-09T12:02:18.136Z,16.33
2022-12-09T12:04:58.536Z,15.97
2022-12-09T12:08:04.555Z,16.83
2022-12-09T12:10:44.760Z,15.93
2022-12-09T12:13:40.496Z,25.10
2022-12-09T12:16:44.674Z,27.70
2022-12-09T12:19:39.681Z,27.83
2022-12-09T12:22:41.020Z,17.90
2022-12-09T12:25:47.562Z,16.10
2022-12-09T12:28:30.906Z,15.90
2022-12-09T12:31:26.479Z,18.53
2022-12-09T12:34:45.841Z,14.70
2022-12-09T12:46:27.242Z,14.00
2022-12-09T12:55:43.078Z,16.00
2022-12-09T12:59:03.136Z,14.07
2022-12-09T13:01:41.283Z,14.30
2022-12-09T13:04:48.475Z,16.17
2022-12-09T13:07:45.969Z,16.20
2022-12-09T13:10:29.035Z,16.33
2022-12-09T13:12:58.679Z,16.03
2022-12-09T13:15:41.929Z,16.33
2022-12-09T13:18:40.446Z,13.87
2022-12-09T13:21:08.477Z,14.63
2022-12-09T13:24:18.014Z,14.40
2022-12-09T13:26:48.939Z,15.17
2022-12-09T13:29:34.957Z,14.13
2022-12-09T13:32:42.967Z,15.33
2022-12-09T13:35:38.059Z,15.73
2022-12-09T13:38:40.607Z,15.27
2022-12-09T13:41:57.226Z,13.40
2022-12-09T13:44:36.605Z,13.73
2022-12-09T13:47:28.594Z,14.30
2022-12-09T13:50:04.904Z,15.23
2022-12-09T13:53:21.535Z,13.93
2022-12-09T13:56:21.239Z,13.87
2022-12-09T13:59:40.177Z,14.30
2022-12-09T14:02:42.843Z,15.27
2022-12-09T14:05:23.646Z,14.80
2022-12-09T14:08:07.386Z,14.10
2022-12-09T14:10:44.595Z,13.93
2022-12-09T14:13:35.718Z,13.87
2022-12-09T14:16:30.479Z,13.03
2022-12-09T14:19:34.144Z,13.30
2022-12-09T14:22:23.620Z,14.00
2022-12-09T14:25:27.617Z,14.27
2022-12-09T14:28:12.863Z,13.40
2022-12-09T14:31:04.834Z,14.50
2022-12-09T14:33:41.236Z,15.47
2022-12-09T14:36:14.619Z,15.47
2022-12-09T14:39:07.831Z,19.07
2022-12-09T14:41:40.624Z,16.37
2022-12-09T14:44:37.094Z,17.00
2022-12-09T14:47:34.265Z,17.50
2022-12-09T14:50:22.198Z,15.73
2022-12-09T14:53:03.754Z,15.73
2022-12-09T14:55:40.248Z,15.63
2022-12-09T14:58:13.679Z,15.87
2022-12-09T15:00:41.774Z,17.87
2022-12-09T15:03:33.261Z,19.43
2022-12-09T15:06:19.254Z,19.17
2022-12-09T15:08:48.084Z,21.67
2022-12-09T15:11:19.253Z,16.50
2022-12-09T15:13:50.783Z,17.00
2022-12-09T15:16:24.814Z,22.60
2022-12-09T15:18:53.935Z,24.80
2022-12-09T15:21:33.921Z,25.00
2022-12-09T15:24:01.749Z,17.00
2022-12-09T15:26:34.187Z,16.67
2022-12-09T15:29:05.625Z,18.73
2022-12-09T15:31:35.010Z,18.90
2022-12-09T15:34:20.529Z,19.10
2022-12-09T15:37:02.710Z,19.93
2022-12-09T15:39:52.199Z,19.97
2022-12-09T15:42:27.412Z,20.33
2022-12-09T15:45:10.850Z,20.60
2022-12-09T15:48:02.824Z,20.80
2022-12-09T15:50:44.918Z,21.57
2022-12-09T15:53:34.486Z,22.03
2022-12-09T15:56:33.027Z,21.33
2022-12-09T15:59:20.713Z,22.67
2022-12-09T16:01:58.101Z,23.03
2022-12-09T16:04:34.785Z,24.00
2022-12-09T16:07:07.351Z,29.97
2022-12-09T16:09:35.297Z,22.70
2022-12-09T16:12:26.527Z,24.30
2022-12-09T16:14:54.918Z,24.30
2022-12-09T16:17:27.872Z,26.03
2022-12-09T16:19:55.850Z,27.23
2022-12-09T16:22:32.110Z,23.10
2022-12-09T16:25:23.761Z,24.23
2022-12-09T16:28:04.566Z,26.97
2022-12-09T16:30:43.458Z,25.03
2022-12-09T16:33:37.946Z,24.97
2022-12-09T16:36:16.169Z,26.03
2022-12-09T16:39:33.291Z,24.90
2022-12-09T16:42:03.800Z,23.93
2022-12-09T16:44:39.496Z,24.90
2022-12-09T16:47:30.785Z,25.27
2022-12-09T16:50:02.983Z,24.07
2022-12-09T16:52:35.952Z,23.47
2022-12-09T16:55:38.588Z,26.07
2022-12-09T16:58:08.582Z,25.00
2022-12-09T17:00:43.909Z,25.60
2022-12-09T17:03:39.376Z,25.10
2022-12-09T17:06:11.925Z,25.60
2022-12-09T17:08:40.496Z,26.73
2022-12-09T17:11:11.144Z,26.50
2022-12-09T17:13:43.114Z,29.87
2022-12-09T17:16:13.123Z,133.10
2022-12-09T17:19:10.465Z,123.30
2022-12-09T17:24:30.603Z,240.53
2022-12-09T17:27:10.055Z,63.37
2022-12-09T17:29:40.104Z,39.57
2022-12-09T17:32:10.162Z,57.87
2022-12-09T17:34:39.938Z,44.53
2022-12-09T17:37:11.936Z,41.73
2022-12-09T17:39:41.131Z,45.30
2022-12-09T17:42:09.873Z,70.50
2022-12-09T17:44:39.139Z,57.17
2022-12-09T17:47:09.721Z,30.23
2022-12-09T17:49:44.553Z,31.27
2022-12-09T17:52:14.986Z,34.63
2022-12-09T17:54:45.931Z,45.30
2022-12-09T17:57:16.027Z,48.77
2022-12-09T17:59:50.662Z,51.73
2022-12-09T18:02:20.758Z,40.73
2022-12-09T18:04:58.626Z,40.37
2022-12-09T18:07:30.035Z,30.27
2022-12-09T18:10:00.884Z,33.37
2022-12-09T18:12:30.408Z,29.30
2022-12-09T18:15:01.638Z,35.00
2022-12-09T18:17:36.727Z,30.60
2022-12-09T18:20:34.224Z,36.27
2022-12-09T18:23:27.451Z,38.07
2022-12-09T18:25:58.311Z,39.50
2022-12-09T18:28:28.820Z,30.90
2022-12-09T18:31:02.965Z,37.63
2022-12-09T18:33:35.484Z,29.47
2022-12-09T18:36:18.140Z,31.40
2022-12-09T18:38:49.757Z,36.43
2022-12-09T18:41:27.048Z,32.73
2022-12-09T18:43:56.962Z,28.13
2022-12-09T18:46:33.892Z,33.37
2022-12-09T18:49:18.406Z,27.90
2022-12-09T18:51:57.760Z,30.10
2022-12-09T18:54:32.335Z,28.23
2022-12-09T18:57:03.629Z,36.87
2022-12-09T18:59:32.979Z,41.53
2022-12-09T19:02:07.122Z,73.13
2022-12-09T19:04:37.370Z,44.27
2022-12-09T19:07:10.183Z,45.40
2022-12-09T19:09:45.491Z,30.33
2022-12-09T19:12:45.815Z,60.90
2022-12-09T19:15:11.750Z,144.10
2022-12-09T19:17:45.766Z,44.63
2022-12-09T19:20:38.312Z,42.47
2022-12-09T19:23:11.260Z,37.97
2022-12-09T19:25:49.490Z,31.30
2022-12-09T19:28:20.627Z,31.73
2022-12-09T19:30:53.996Z,29.20
2022-12-09T19:33:21.864Z,33.10
2022-12-09T19:35:52.961Z,34.30
2022-12-09T19:38:30.897Z,31.97
2022-12-09T19:41:05.290Z,34.23
2022-12-09T19:43:40.213Z,32.97
2022-12-09T19:46:14.587Z,32.63
2022-12-09T19:48:46.989Z,30.80
2022-12-09T19:51:20.768Z,29.37
2022-12-09T19:53:49.877Z,30.10
2022-12-09T19:56:20.969Z,40.80
2022-12-09T19:58:52.471Z,32.20
2022-12-09T20:01:41.409Z,28.77
2022-12-09T20:04:48.097Z,28.93
2022-12-09T20:07:11.554Z,26.50
2022-12-09T20:09:41.272Z,26.60
2022-12-09T20:12:10.446Z,26.63
2022-12-09T20:14:39.558Z,26.27
2022-12-09T20:17:28.765Z,24.90
2022-12-09T20:20:02.196Z,24.83
2022-12-09T20:22:32.953Z,23.50
2022-12-09T20:25:04.240Z,23.17
2022-12-09T20:27:34.634Z,24.73
2022-12-09T20:30:02.564Z,25.27
2022-12-09T20:32:34.693Z,27.50
2022-12-09T20:35:25.460Z,28.83
2022-12-09T20:37:54.096Z,29.17
2022-12-09T20:40:22.600Z,29.83
2022-12-09T20:42:52.603Z,28.63
2022-12-09T20:45:20.773Z,29.73
2022-12-09T20:47:53.434Z,32.67
2022-12-09T20:50:22.481Z,33.13
2022-12-09T20:52:55.374Z,33.07
2022-12-09T20:55:28.949Z,31.30
2022-12-09T20:57:57.760Z,32.30
2022-12-09T21:00:28.604Z,37.83
2022-12-09T21:02:56.689Z,37.57
2022-12-09T21:05:28.134Z,36.47
2022-12-09T21:07:58.013Z,33.10
2022-12-09T21:10:26.060Z,35.70
2022-12-09T21:12:57.386Z,36.93
2022-12-09T21:15:28.703Z,38.17
2022-12-09T21:18:00.859Z,40.67
2022-12-09T21:20:32.647Z,41.00
2022-12-09T21:23:32.779Z,39.83
2022-12-09T21:25:58.132Z,37.47
2022-12-09T21:28:26.309Z,26.60
2022-12-09T21:30:54.377Z,24.03
2022-12-09T21:33:23.579Z,24.40
2022-12-09T21:35:56.490Z,26.47
2022-12-09T21:38:29.333Z,31.70
2022-12-09T21:41:17.512Z,31.67
2022-12-09T21:43:46.798Z,31.17
2022-12-09T21:46:22.795Z,28.60
2022-12-09T21:48:54.244Z,29.00
2022-12-09T21:51:24.052Z,29.20
2022-12-09T21:53:53.301Z,27.70
2022-12-09T21:56:25.857Z,29.97
2022-12-09T21:59:16.956Z,25.70
2022-12-09T22:01:45.622Z,25.70
2022-12-09T22:04:18.758Z,26.33
2022-12-09T22:06:49.726Z,25.37
2022-12-09T22:09:21.080Z,26.67
2022-12-09T22:12:08.809Z,21.10
2022-12-09T22:14:37.170Z,20.13
2022-12-09T22:17:04.702Z,19.33
2022-12-09T22:19:32.302Z,20.93
2022-12-09T22:22:02.351Z,18.87
2022-12-09T22:24:33.689Z,20.47
2022-12-09T22:27:01.280Z,21.10
2022-12-09T22:29:29.549Z,22.73
2022-12-09T22:31:57.021Z,23.47
2022-12-09T22:34:24.591Z,27.03
2022-12-09T22:36:55.905Z,28.70
2022-12-09T22:39:23.883Z,27.43
2022-12-09T22:41:52.201Z,28.83
2022-12-09T22:44:20.796Z,27.10
2022-12-09T22:46:49.063Z,26.47
2022-12-09T22:49:17.730Z,25.00
2022-12-09T22:51:47.102Z,24.90
2022-12-09T22:54:15.674Z,26.00
2022-12-09T22:56:44.934Z,26.60
2022-12-09T22:59:14.889Z,25.60
2022-12-09T23:01:46.010Z,26.23
2022-12-09T23:04:18.842Z,23.00
2022-12-09T23:06:46.361Z,21.53
2022-12-09T23:09:19.148Z,23.37
2022-12-09T23:11:49.699Z,22.07
2022-12-09T23:14:18.008Z,22.27
2022-12-09T23:16:45.823Z,21.00
2022-12-09T23:19:14.278Z,19.80
2022-12-09T23:21:43.243Z,21.73
2022-12-09T23:24:15.080Z,20.87
2022-12-09T23:26:44.670Z,19.70
2022-12-09T23:29:16.660Z,22.80
2022-12-09T23:31:47.245Z,22.60
2022-12-09T23:34:16.025Z,20.83
2022-12-09T23:36:44.990Z,21.73
2022-12-09T23:39:16.303Z,22.53
2022-12-09T23:41:47.805Z,21.17
2022-12-09T23:44:18.212Z,20.80
2022-12-09T23:46:46.589Z,20.93
2022-12-09T23:49:14.661Z,21.47
2022-12-09T23:51:45.777Z,21.63
2022-12-09T23:54:15.290Z,20.87
2022-12-09T23:56:48.111Z,18.97
2022-12-09T23:59:15.856Z,21.03
